sensor_id;sensor_type;location;lat;lon;timestamp;P1;durP1;ratioP1;P2;durP2;ratioP2
49840;SDS011;35738;49.890;5.930;2022-11-20T00:01:09;15.02;;;10.65;;
49840;SDS011;35738;49.890;5.930;2022-11-20T00:03:37;18.08;;;10.75;;
49840;SDS011;35738;49.890;5.930;2022-11-20T00:06:05;21.73;;;11.85;;
49840;SDS011;35738;49.890;5.930;2022-11-20T00:08:33;20.55;;;11.07;;
49840;SDS011;35738;49.890;5.930;2022-11-20T00:11:13;21.83;;;12.82;;
49840;SDS011;35738;49.890;5.930;2022-11-20T00:13:45;24.65;;;12.48;;
49840;SDS011;35738;49.890;5.930;2022-11-20T00:16:14;20.57;;;11.63;;
49840;SDS011;35738;49.890;5.930;2022-11-20T00:18:42;17.33;;;9.73;;
49840;SDS011;35738;49.890;5.930;2022-11-20T00:21:11;14.05;;;8.65;;
49840;SDS011;35738;49.890;5.930;2022-11-20T00:23:39;14.45;;;8.80;;
49840;SDS011;35738;49.890;5.930;2022-11-20T00:26:06;14.57;;;9.68;;
49840;SDS011;35738;49.890;5.930;2022-11-20T00:28:34;20.77;;;11.93;;
49840;SDS011;35738;49.890;5.930;2022-11-20T00:31:11;17.67;;;9.85;;
49840;SDS011;35738;49.890;5.930;2022-11-20T00:33:40;14.80;;;9.98;;
49840;SDS011;35738;49.890;5.930;2022-11-20T00:36:26;17.47;;;10.30;;
49840;SDS011;35738;49.890;5.930;2022-11-20T00:38:56;20.35;;;11.68;;
49840;SDS011;35738;49.890;5.930;2022-11-20T00:41:24;20.03;;;12.50;;
49840;SDS011;35738;49.890;5.930;2022-11-20T00:43:52;20.90;;;12.17;;
49840;SDS011;35738;49.890;5.930;2022-11-20T00:46:24;26.20;;;12.73;;
49840;SDS011;35738;49.890;5.930;2022-11-20T00:48:52;26.60;;;12.90;;
49840;SDS011;35738;49.890;5.930;2022-11-20T00:51:20;20.50;;;11.95;;
49840;SDS011;35738;49.890;5.930;2022-11-20T00:53:48;24.17;;;12.65;;
49840;SDS011;35738;49.890;5.930;2022-11-20T00:56:16;20.60;;;11.75;;
49840;SDS011;35738;49.890;5.930;2022-11-20T00:58:45;25.43;;;10.83;;
49840;SDS011;35738;49.890;5.930;2022-11-20T01:03:45;17.50;;;11.18;;
49840;SDS011;35738;49.890;5.930;2022-11-20T01:08:45;16.80;;;10.05;;
49840;SDS011;35738;49.890;5.930;2022-11-20T01:11:13;19.08;;;10.77;;
49840;SDS011;35738;49.890;5.930;2022-11-20T01:13:42;21.00;;;11.23;;
49840;SDS011;35738;49.890;5.930;2022-11-20T01:16:15;19.38;;;10.63;;
49840;SDS011;35738;49.890;5.930;2022-11-20T01:18:45;14.35;;;9.00;;
49840;SDS011;35738;49.890;5.930;2022-11-20T01:21:14;9.60;;;6.35;;
49840;SDS011;35738;49.890;5.930;2022-11-20T01:23:43;5.22;;;4.22;;
49840;SDS011;35738;49.890;5.930;2022-11-20T01:26:11;3.78;;;3.40;;
49840;SDS011;35738;49.890;5.930;2022-11-20T01:28:40;7.85;;;4.00;;
49840;SDS011;35738;49.890;5.930;2022-11-20T01:31:50;4.45;;;3.22;;
49840;SDS011;35738;49.890;5.930;2022-11-20T01:33:59;5.75;;;3.88;;
49840;SDS011;35738;49.890;5.930;2022-11-20T01:36:28;4.65;;;3.78;;
49840;SDS011;35738;49.890;5.930;2022-11-20T01:39:00;5.77;;;4.47;;
49840;SDS011;35738;49.890;5.930;2022-11-20T01:41:32;8.57;;;5.13;;
49840;SDS011;35738;49.890;5.930;2022-11-20T01:44:39;11.10;;;6.40;;
49840;SDS011;35738;49.890;5.930;2022-11-20T01:47:12;12.90;;;7.00;;
49840;SDS011;35738;49.890;5.930;2022-11-20T01:49:46;12.40;;;7.97;;
49840;SDS011;35738;49.890;5.930;2022-11-20T01:52:21;14.17;;;8.73;;
49840;SDS011;35738;49.890;5.930;2022-11-20T01:55:09;15.63;;;9.60;;
49840;SDS011;35738;49.890;5.930;2022-11-20T01:57:39;15.30;;;9.88;;
49840;SDS011;35738;49.890;5.930;2022-11-20T02:00:08;18.70;;;10.73;;
49840;SDS011;35738;49.890;5.930;2022-11-20T02:02:38;22.00;;;10.90;;
49840;SDS011;35738;49.890;5.930;2022-11-20T02:20:16;14.47;;;8.77;;
49840;SDS011;35738;49.890;5.930;2022-11-20T02:22:54;15.53;;;8.97;;
49840;SDS011;35738;49.890;5.930;2022-11-20T02:25:25;13.63;;;8.48;;
49840;SDS011;35738;49.890;5.930;2022-11-20T02:27:53;14.03;;;8.87;;
49840;SDS011;35738;49.890;5.930;2022-11-20T02:30:20;13.10;;;8.90;;
49840;SDS011;35738;49.890;5.930;2022-11-20T02:32:47;14.73;;;8.63;;
49840;SDS011;35738;49.890;5.930;2022-11-20T02:37:47;12.70;;;7.63;;
49840;SDS011;35738;49.890;5.930;2022-11-20T02:40:16;11.97;;;8.47;;
49840;SDS011;35738;49.890;5.930;2022-11-20T02:42:42;11.20;;;8.18;;
49840;SDS011;35738;49.890;5.930;2022-11-20T02:45:09;13.77;;;8.90;;
49840;SDS011;35738;49.890;5.930;2022-11-20T02:47:36;14.23;;;9.37;;
49840;SDS011;35738;49.890;5.930;2022-11-20T02:50:04;14.47;;;9.43;;
49840;SDS011;35738;49.890;5.930;2022-11-20T02:52:31;16.38;;;9.98;;
49840;SDS011;35738;49.890;5.930;2022-11-20T02:54:58;15.13;;;9.93;;
49840;SDS011;35738;49.890;5.930;2022-11-20T02:57:24;17.33;;;10.23;;
49840;SDS011;35738;49.890;5.930;2022-11-20T02:59:51;21.73;;;11.35;;
49840;SDS011;35738;49.890;5.930;2022-11-20T03:02:17;17.83;;;11.13;;
49840;SDS011;35738;49.890;5.930;2022-11-20T03:04:44;20.10;;;11.15;;
49840;SDS011;35738;49.890;5.930;2022-11-20T03:07:11;18.17;;;10.77;;
49840;SDS011;35738;49.890;5.930;2022-11-20T03:09:38;24.38;;;11.60;;
49840;SDS011;35738;49.890;5.930;2022-11-20T03:12:04;24.03;;;13.17;;
49840;SDS011;35738;49.890;5.930;2022-11-20T03:14:31;21.52;;;11.82;;
49840;SDS011;35738;49.890;5.930;2022-11-20T03:16:58;23.37;;;13.17;;
49840;SDS011;35738;49.890;5.930;2022-11-20T03:19:24;21.17;;;12.27;;
49840;SDS011;35738;49.890;5.930;2022-11-20T03:21:51;26.48;;;13.07;;
49840;SDS011;35738;49.890;5.930;2022-11-20T03:24:18;23.55;;;12.80;;
49840;SDS011;35738;49.890;5.930;2022-11-20T03:26:44;20.33;;;12.00;;
49840;SDS011;35738;49.890;5.930;2022-11-20T03:29:11;22.40;;;12.25;;
49840;SDS011;35738;49.890;5.930;2022-11-20T03:31:38;19.97;;;12.17;;
49840;SDS011;35738;49.890;5.930;2022-11-20T03:34:10;23.03;;;12.20;;
49840;SDS011;35738;49.890;5.930;2022-11-20T03:36:38;22.93;;;12.07;;
49840;SDS011;35738;49.890;5.930;2022-11-20T03:39:05;21.13;;;12.30;;
49840;SDS011;35738;49.890;5.930;2022-11-20T03:41:35;20.45;;;12.55;;
49840;SDS011;35738;49.890;5.930;2022-11-20T03:44:05;20.27;;;11.60;;
49840;SDS011;35738;49.890;5.930;2022-11-20T03:46:34;21.20;;;12.60;;
49840;SDS011;35738;49.890;5.930;2022-11-20T03:49:00;19.50;;;12.17;;
49840;SDS011;35738;49.890;5.930;2022-11-20T03:51:28;24.20;;;13.27;;
49840;SDS011;35738;49.890;5.930;2022-11-20T03:53:57;22.57;;;12.23;;
49840;SDS011;35738;49.890;5.930;2022-11-20T03:56:26;23.73;;;13.07;;
49840;SDS011;35738;49.890;5.930;2022-11-20T03:58:55;20.38;;;13.27;;
49840;SDS011;35738;49.890;5.930;2022-11-20T04:01:23;22.70;;;12.63;;
49840;SDS011;35738;49.890;5.930;2022-11-20T04:03:52;19.23;;;11.95;;
49840;SDS011;35738;49.890;5.930;2022-11-20T04:06:21;21.17;;;12.32;;
49840;SDS011;35738;49.890;5.930;2022-11-20T04:08:49;22.60;;;12.40;;
49840;SDS011;35738;49.890;5.930;2022-11-20T04:11:26;21.20;;;12.40;;
49840;SDS011;35738;49.890;5.930;2022-11-20T04:13:58;22.27;;;12.98;;
49840;SDS011;35738;49.890;5.930;2022-11-20T04:16:28;22.37;;;12.60;;
49840;SDS011;35738;49.890;5.930;2022-11-20T04:18:57;22.20;;;12.87;;
49840;SDS011;35738;49.890;5.930;2022-11-20T04:21:25;19.67;;;11.90;;
49840;SDS011;35738;49.890;5.930;2022-11-20T04:23:53;19.80;;;12.40;;
49840;SDS011;35738;49.890;5.930;2022-11-20T04:26:21;22.23;;;12.93;;
49840;SDS011;35738;49.890;5.930;2022-11-20T04:28:49;18.03;;;11.73;;
49840;SDS011;35738;49.890;5.930;2022-11-20T04:31:20;21.80;;;13.20;;
49840;SDS011;35738;49.890;5.930;2022-11-20T04:33:48;28.17;;;18.00;;
49840;SDS011;35738;49.890;5.930;2022-11-20T04:36:19;22.55;;;13.60;;
49840;SDS011;35738;49.890;5.930;2022-11-20T04:38:50;22.15;;;13.15;;
49840;SDS011;35738;49.890;5.930;2022-11-20T04:41:23;21.52;;;13.23;;
49840;SDS011;35738;49.890;5.930;2022-11-20T04:43:56;23.70;;;13.17;;
49840;SDS011;35738;49.890;5.930;2022-11-20T04:46:34;23.83;;;14.10;;
49840;SDS011;35738;49.890;5.930;2022-11-20T04:49:08;24.20;;;13.27;;
49840;SDS011;35738;49.890;5.930;2022-11-20T04:51:36;22.90;;;12.95;;
49840;SDS011;35738;49.890;5.930;2022-11-20T04:54:03;22.08;;;13.27;;
49840;SDS011;35738;49.890;5.930;2022-11-20T04:56:30;22.70;;;13.93;;
49840;SDS011;35738;49.890;5.930;2022-11-20T04:58:59;22.23;;;13.25;;
49840;SDS011;35738;49.890;5.930;2022-11-20T05:01:28;22.25;;;13.38;;
49840;SDS011;35738;49.890;5.930;2022-11-20T05:03:54;24.55;;;13.65;;
49840;SDS011;35738;49.890;5.930;2022-11-20T05:06:21;22.77;;;13.40;;
49840;SDS011;35738;49.890;5.930;2022-11-20T05:08:49;22.63;;;12.87;;
49840;SDS011;35738;49.890;5.930;2022-11-20T05:11:16;23.23;;;13.32;;
49840;SDS011;35738;49.890;5.930;2022-11-20T05:13:45;24.08;;;13.07;;
49840;SDS011;35738;49.890;5.930;2022-11-20T05:16:13;28.05;;;16.13;;
49840;SDS011;35738;49.890;5.930;2022-11-20T05:18:47;25.17;;;15.33;;
49840;SDS011;35738;49.890;5.930;2022-11-20T05:21:14;25.42;;;14.07;;
49840;SDS011;35738;49.890;5.930;2022-11-20T05:23:43;25.53;;;15.60;;
49840;SDS011;35738;49.890;5.930;2022-11-20T05:26:14;34.97;;;20.80;;
49840;SDS011;35738;49.890;5.930;2022-11-20T05:28:42;27.83;;;15.07;;
49840;SDS011;35738;49.890;5.930;2022-11-20T05:31:10;30.40;;;15.60;;
49840;SDS011;35738;49.890;5.930;2022-11-20T05:33:53;31.85;;;16.00;;
49840;SDS011;35738;49.890;5.930;2022-11-20T05:36:20;26.55;;;15.25;;
49840;SDS011;35738;49.890;5.930;2022-11-20T05:38:46;26.23;;;15.13;;
49840;SDS011;35738;49.890;5.930;2022-11-20T05:41:17;29.45;;;16.30;;
49840;SDS011;35738;49.890;5.930;2022-11-20T05:43:45;30.95;;;15.95;;
49840;SDS011;35738;49.890;5.930;2022-11-20T05:46:13;29.35;;;15.63;;
49840;SDS011;35738;49.890;5.930;2022-11-20T05:48:43;30.83;;;16.45;;
49840;SDS011;35738;49.890;5.930;2022-11-20T05:51:11;60.95;;;31.92;;
49840;SDS011;35738;49.890;5.930;2022-11-20T05:53:40;33.33;;;17.77;;
49840;SDS011;35738;49.890;5.930;2022-11-20T05:56:15;37.08;;;18.00;;
49840;SDS011;35738;49.890;5.930;2022-11-20T05:58:43;37.17;;;18.23;;
49840;SDS011;35738;49.890;5.930;2022-11-20T06:01:15;40.25;;;18.52;;
49840;SDS011;35738;49.890;5.930;2022-11-20T06:03:46;38.33;;;18.85;;
49840;SDS011;35738;49.890;5.930;2022-11-20T06:06:16;36.47;;;18.35;;
49840;SDS011;35738;49.890;5.930;2022-11-20T06:08:44;37.70;;;18.30;;
49840;SDS011;35738;49.890;5.930;2022-11-20T06:11:11;34.88;;;16.95;;
49840;SDS011;35738;49.890;5.930;2022-11-20T06:13:39;48.00;;;22.27;;
49840;SDS011;35738;49.890;5.930;2022-11-20T06:16:08;34.65;;;17.25;;
49840;SDS011;35738;49.890;5.930;2022-11-20T06:18:36;35.45;;;16.02;;
49840;SDS011;35738;49.890;5.930;2022-11-20T06:21:06;31.40;;;16.10;;
49840;SDS011;35738;49.890;5.930;2022-11-20T06:23:34;30.87;;;15.43;;
49840;SDS011;35738;49.890;5.930;2022-11-20T06:26:03;29.60;;;15.05;;
49840;SDS011;35738;49.890;5.930;2022-11-20T06:28:30;30.17;;;15.30;;
49840;SDS011;35738;49.890;5.930;2022-11-20T06:30:58;33.10;;;15.93;;
49840;SDS011;35738;49.890;5.930;2022-11-20T06:33:25;32.50;;;15.37;;
49840;SDS011;35738;49.890;5.930;2022-11-20T06:35:51;32.55;;;15.90;;
49840;SDS011;35738;49.890;5.930;2022-11-20T06:38:25;32.60;;;16.40;;
49840;SDS011;35738;49.890;5.930;2022-11-20T06:40:52;34.37;;;16.57;;
49840;SDS011;35738;49.890;5.930;2022-11-20T06:43:20;34.08;;;17.35;;
49840;SDS011;35738;49.890;5.930;2022-11-20T06:45:51;33.08;;;16.15;;
49840;SDS011;35738;49.890;5.930;2022-11-20T06:48:21;34.00;;;18.02;;
49840;SDS011;35738;49.890;5.930;2022-11-20T06:50:49;32.70;;;15.60;;
49840;SDS011;35738;49.890;5.930;2022-11-20T06:53:16;28.77;;;15.00;;
49840;SDS011;35738;49.890;5.930;2022-11-20T06:55:43;29.55;;;14.98;;
49840;SDS011;35738;49.890;5.930;2022-11-20T06:58:10;35.80;;;16.33;;
49840;SDS011;35738;49.890;5.930;2022-11-20T07:00:38;29.50;;;14.70;;
49840;SDS011;35738;49.890;5.930;2022-11-20T07:03:05;27.88;;;14.40;;
49840;SDS011;35738;49.890;5.930;2022-11-20T07:05:32;29.92;;;14.35;;
49840;SDS011;35738;49.890;5.930;2022-11-20T07:07:59;53.90;;;28.80;;
49840;SDS011;35738;49.890;5.930;2022-11-20T07:10:26;28.65;;;14.82;;
49840;SDS011;35738;49.890;5.930;2022-11-20T07:12:53;27.30;;;14.18;;
49840;SDS011;35738;49.890;5.930;2022-11-20T07:15:21;28.00;;;14.43;;
49840;SDS011;35738;49.890;5.930;2022-11-20T07:17:49;31.55;;;14.93;;
49840;SDS011;35738;49.890;5.930;2022-11-20T07:20:15;32.77;;;15.37;;
49840;SDS011;35738;49.890;5.930;2022-11-20T07:22:42;24.38;;;14.07;;
49840;SDS011;35738;49.890;5.930;2022-11-20T07:25:09;30.88;;;14.75;;
49840;SDS011;35738;49.890;5.930;2022-11-20T07:27:36;26.07;;;13.57;;
49840;SDS011;35738;49.890;5.930;2022-11-20T07:30:03;26.88;;;14.18;;
49840;SDS011;35738;49.890;5.930;2022-11-20T07:32:30;27.77;;;13.90;;
49840;SDS011;35738;49.890;5.930;2022-11-20T07:34:57;32.47;;;18.07;;
49840;SDS011;35738;49.890;5.930;2022-11-20T07:37:23;28.43;;;15.47;;
49840;SDS011;35738;49.890;5.930;2022-11-20T07:39:50;30.10;;;14.35;;
49840;SDS011;35738;49.890;5.930;2022-11-20T07:42:16;30.77;;;14.60;;
49840;SDS011;35738;49.890;5.930;2022-11-20T07:44:43;27.92;;;14.70;;
49840;SDS011;35738;49.890;5.930;2022-11-20T07:47:10;27.83;;;13.90;;
49840;SDS011;35738;49.890;5.930;2022-11-20T07:49:36;30.67;;;15.30;;
49840;SDS011;35738;49.890;5.930;2022-11-20T07:52:03;27.17;;;14.30;;
49840;SDS011;35738;49.890;5.930;2022-11-20T07:54:30;28.43;;;13.60;;
49840;SDS011;35738;49.890;5.930;2022-11-20T07:56:57;25.35;;;13.13;;
49840;SDS011;35738;49.890;5.930;2022-11-20T07:59:23;25.15;;;12.70;;
49840;SDS011;35738;49.890;5.930;2022-11-20T08:01:50;22.43;;;11.17;;
49840;SDS011;35738;49.890;5.930;2022-11-20T08:04:16;21.98;;;11.65;;
49840;SDS011;35738;49.890;5.930;2022-11-20T08:06:43;22.37;;;11.63;;
49840;SDS011;35738;49.890;5.930;2022-11-20T08:09:10;20.05;;;11.35;;
49840;SDS011;35738;49.890;5.930;2022-11-20T08:11:36;22.42;;;12.00;;
49840;SDS011;35738;49.890;5.930;2022-11-20T08:14:22;25.63;;;12.27;;
49840;SDS011;35738;49.890;5.930;2022-11-20T08:16:49;22.75;;;12.65;;
49840;SDS011;35738;49.890;5.930;2022-11-20T08:19:17;21.25;;;11.13;;
49840;SDS011;35738;49.890;5.930;2022-11-20T08:21:44;20.15;;;12.23;;
49840;SDS011;35738;49.890;5.930;2022-11-20T08:24:12;28.13;;;12.13;;
49840;SDS011;35738;49.890;5.930;2022-11-20T08:26:39;24.33;;;12.07;;
49840;SDS011;35738;49.890;5.930;2022-11-20T08:29:06;24.80;;;11.87;;
49840;SDS011;35738;49.890;5.930;2022-11-20T08:31:33;21.67;;;11.00;;
49840;SDS011;35738;49.890;5.930;2022-11-20T08:34:00;32.00;;;19.10;;
49840;SDS011;35738;49.890;5.930;2022-11-20T08:36:33;39.30;;;23.03;;
49840;SDS011;35738;49.890;5.930;2022-11-20T08:39:01;20.10;;;11.35;;
49840;SDS011;35738;49.890;5.930;2022-11-20T08:41:28;22.77;;;12.00;;
49840;SDS011;35738;49.890;5.930;2022-11-20T08:44:00;23.33;;;12.07;;
49840;SDS011;35738;49.890;5.930;2022-11-20T08:46:30;24.10;;;12.63;;
49840;SDS011;35738;49.890;5.930;2022-11-20T08:49:10;16.67;;;9.65;;
49840;SDS011;35738;49.890;5.930;2022-11-20T08:51:38;18.60;;;9.93;;
49840;SDS011;35738;49.890;5.930;2022-11-20T08:54:05;13.07;;;8.27;;
49840;SDS011;35738;49.890;5.930;2022-11-20T08:56:32;12.37;;;7.93;;
49840;SDS011;35738;49.890;5.930;2022-11-20T08:58:59;12.90;;;6.63;;
49840;SDS011;35738;49.890;5.930;2022-11-20T09:01:46;59.50;;;25.23;;
49840;SDS011;35738;49.890;5.930;2022-11-20T09:04:12;12.77;;;7.13;;
49840;SDS011;35738;49.890;5.930;2022-11-20T09:06:40;13.30;;;5.43;;
49840;SDS011;35738;49.890;5.930;2022-11-20T09:09:07;7.72;;;4.13;;
49840;SDS011;35738;49.890;5.930;2022-11-20T09:11:34;8.07;;;5.27;;
49840;SDS011;35738;49.890;5.930;2022-11-20T09:14:02;8.03;;;4.23;;
49840;SDS011;35738;49.890;5.930;2022-11-20T09:16:29;10.57;;;4.30;;
49840;SDS011;35738;49.890;5.930;2022-11-20T09:18:55;5.90;;;4.00;;
49840;SDS011;35738;49.890;5.930;2022-11-20T09:21:42;7.57;;;4.03;;
49840;SDS011;35738;49.890;5.930;2022-11-20T09:24:08;6.20;;;3.80;;
49840;SDS011;35738;49.890;5.930;2022-11-20T09:26:35;8.87;;;4.20;;
49840;SDS011;35738;49.890;5.930;2022-11-20T09:29:01;9.93;;;5.80;;
49840;SDS011;35738;49.890;5.930;2022-11-20T09:31:28;8.87;;;4.33;;
49840;SDS011;35738;49.890;5.930;2022-11-20T09:33:55;6.20;;;4.13;;
49840;SDS011;35738;49.890;5.930;2022-11-20T09:36:21;8.17;;;4.40;;
49840;SDS011;35738;49.890;5.930;2022-11-20T09:38:48;6.45;;;3.47;;
49840;SDS011;35738;49.890;5.930;2022-11-20T09:50:20;5.57;;;3.88;;
49840;SDS011;35738;49.890;5.930;2022-11-20T09:53:30;3.63;;;2.80;;
49840;SDS011;35738;49.890;5.930;2022-11-20T09:55:56;3.83;;;2.85;;
49840;SDS011;35738;49.890;5.930;2022-11-20T09:58:45;9.05;;;3.97;;
49840;SDS011;35738;49.890;5.930;2022-11-20T10:01:16;6.90;;;3.10;;
49840;SDS011;35738;49.890;5.930;2022-11-20T10:04:03;4.67;;;3.17;;
49840;SDS011;35738;49.890;5.930;2022-11-20T10:06:40;7.90;;;3.10;;
49840;SDS011;35738;49.890;5.930;2022-11-20T10:09:37;5.72;;;3.20;;
49840;SDS011;35738;49.890;5.930;2022-11-20T10:12:24;8.35;;;3.50;;
49840;SDS011;35738;49.890;5.930;2022-11-20T10:15:22;8.77;;;3.85;;
49840;SDS011;35738;49.890;5.930;2022-11-20T10:20:48;5.47;;;3.70;;
49840;SDS011;35738;49.890;5.930;2022-11-20T10:26:01;5.43;;;3.35;;
49840;SDS011;35738;49.890;5.930;2022-11-20T10:31:50;5.75;;;3.13;;
49840;SDS011;35738;49.890;5.930;2022-11-20T10:34:00;8.82;;;3.10;;
49840;SDS011;35738;49.890;5.930;2022-11-20T10:36:39;3.15;;;2.35;;
49840;SDS011;35738;49.890;5.930;2022-11-20T10:39:24;5.28;;;2.60;;
49840;SDS011;35738;49.890;5.930;2022-11-20T10:41:57;5.88;;;2.58;;
49840;SDS011;35738;49.890;5.930;2022-11-20T10:44:27;10.07;;;2.97;;
49840;SDS011;35738;49.890;5.930;2022-11-20T10:47:18;8.00;;;3.08;;
49840;SDS011;35738;49.890;5.930;2022-11-20T10:49:46;7.70;;;2.90;;
49840;SDS011;35738;49.890;5.930;2022-11-20T10:52:20;5.10;;;2.67;;
49840;SDS011;35738;49.890;5.930;2022-11-20T10:55:01;8.93;;;3.10;;
49840;SDS011;35738;49.890;5.930;2022-11-20T11:00:18;4.70;;;2.75;;
49840;SDS011;35738;49.890;5.930;2022-11-20T11:02:48;5.68;;;2.70;;
49840;SDS011;35738;49.890;5.930;2022-11-20T11:07:48;5.32;;;2.63;;
49840;SDS011;35738;49.890;5.930;2022-11-20T11:13:04;6.75;;;2.20;;
49840;SDS011;35738;49.890;5.930;2022-11-20T11:15:38;4.55;;;2.40;;
49840;SDS011;35738;49.890;5.930;2022-11-20T11:18:10;3.60;;;2.20;;
49840;SDS011;35738;49.890;5.930;2022-11-20T11:20:37;3.97;;;2.20;;
49840;SDS011;35738;49.890;5.930;2022-11-20T11:23:04;7.05;;;2.38;;
49840;SDS011;35738;49.890;5.930;2022-11-20T11:25:32;7.47;;;2.60;;
49840;SDS011;35738;49.890;5.930;2022-11-20T11:28:05;4.93;;;2.28;;
49840;SDS011;35738;49.890;5.930;2022-11-20T11:30:44;6.83;;;2.53;;
49840;SDS011;35738;49.890;5.930;2022-11-20T11:33:17;6.25;;;2.55;;
49840;SDS011;35738;49.890;5.930;2022-11-20T11:35:47;6.87;;;2.70;;
49840;SDS011;35738;49.890;5.930;2022-11-20T11:38:19;3.60;;;2.35;;
49840;SDS011;35738;49.890;5.930;2022-11-20T11:40:53;4.07;;;2.50;;
49840;SDS011;35738;49.890;5.930;2022-11-20T11:43:24;10.15;;;3.05;;
49840;SDS011;35738;49.890;5.930;2022-11-20T11:46:22;9.45;;;2.53;;
49840;SDS011;35738;49.890;5.930;2022-11-20T11:54:24;5.55;;;2.72;;
49840;SDS011;35738;49.890;5.930;2022-11-20T11:56:58;6.20;;;2.60;;
49840;SDS011;35738;49.890;5.930;2022-11-20T12:02:34;4.88;;;2.45;;
49840;SDS011;35738;49.890;5.930;2022-11-20T12:10:15;6.93;;;2.20;;
49840;SDS011;35738;49.890;5.930;2022-11-20T12:12:50;5.97;;;2.40;;
49840;SDS011;35738;49.890;5.930;2022-11-20T12:15:30;4.40;;;2.42;;
49840;SDS011;35738;49.890;5.930;2022-11-20T12:17:59;6.72;;;2.20;;
49840;SDS011;35738;49.890;5.930;2022-11-20T12:20:28;5.72;;;2.10;;
49840;SDS011;35738;49.890;5.930;2022-11-20T12:23:03;6.80;;;2.22;;
49840;SDS011;35738;49.890;5.930;2022-11-20T12:25:40;5.10;;;2.78;;
49840;SDS011;35738;49.890;5.930;2022-11-20T12:31:30;5.75;;;2.67;;
49840;SDS011;35738;49.890;5.930;2022-11-20T12:34:10;10.95;;;3.80;;
49840;SDS011;35738;49.890;5.930;2022-11-20T12:39:34;6.65;;;2.67;;
49840;SDS011;35738;49.890;5.930;2022-11-20T12:53:30;4.93;;;2.50;;
49840;SDS011;35738;49.890;5.930;2022-11-20T12:58:33;4.03;;;2.45;;
49840;SDS011;35738;49.890;5.930;2022-11-20T13:01:19;6.03;;;2.22;;
49840;SDS011;35738;49.890;5.930;2022-11-20T13:04:12;5.07;;;2.28;;
49840;SDS011;35738;49.890;5.930;2022-11-20T13:07:03;6.03;;;2.67;;
49840;SDS011;35738;49.890;5.930;2022-11-20T13:09:34;7.32;;;2.70;;
49840;SDS011;35738;49.890;5.930;2022-11-20T13:12:13;7.43;;;2.50;;
49840;SDS011;35738;49.890;5.930;2022-11-20T13:14:42;6.65;;;2.30;;
49840;SDS011;35738;49.890;5.930;2022-11-20T13:17:29;4.10;;;2.30;;
49840;SDS011;35738;49.890;5.930;2022-11-20T13:20:05;4.97;;;2.10;;
49840;SDS011;35738;49.890;5.930;2022-11-20T13:22:46;4.72;;;2.60;;
49840;SDS011;35738;49.890;5.930;2022-11-20T13:28:04;2.88;;;2.17;;
49840;SDS011;35738;49.890;5.930;2022-11-20T13:30:52;4.93;;;2.40;;
49840;SDS011;35738;49.890;5.930;2022-11-20T13:33:28;5.38;;;2.13;;
49840;SDS011;35738;49.890;5.930;2022-11-20T13:38:48;4.53;;;2.53;;
49840;SDS011;35738;49.890;5.930;2022-11-20T13:41:30;4.65;;;2.50;;
49840;SDS011;35738;49.890;5.930;2022-11-20T13:45:09;3.43;;;2.40;;
49840;SDS011;35738;49.890;5.930;2022-11-20T13:47:19;5.00;;;2.67;;
49840;SDS011;35738;49.890;5.930;2022-11-20T13:49:48;6.68;;;2.70;;
49840;SDS011;35738;49.890;5.930;2022-11-20T13:57:55;4.23;;;2.93;;
49840;SDS011;35738;49.890;5.930;2022-11-20T14:00:24;5.47;;;3.00;;
49840;SDS011;35738;49.890;5.930;2022-11-20T14:03:04;8.23;;;2.70;;
49840;SDS011;35738;49.890;5.930;2022-11-20T14:05:35;3.47;;;2.70;;
49840;SDS011;35738;49.890;5.930;2022-11-20T14:08:06;8.80;;;2.90;;
49840;SDS011;35738;49.890;5.930;2022-11-20T14:10:39;5.43;;;3.13;;
49840;SDS011;35738;49.890;5.930;2022-11-20T14:13:15;9.63;;;3.20;;
49840;SDS011;35738;49.890;5.930;2022-11-20T14:15:45;5.63;;;2.90;;
49840;SDS011;35738;49.890;5.930;2022-11-20T14:18:13;6.17;;;3.20;;
49840;SDS011;35738;49.890;5.930;2022-11-20T14:20:41;4.40;;;3.22;;
49840;SDS011;35738;49.890;5.930;2022-11-20T14:23:10;5.93;;;3.23;;
49840;SDS011;35738;49.890;5.930;2022-11-20T14:25:37;8.47;;;3.30;;
49840;SDS011;35738;49.890;5.930;2022-11-20T14:28:11;8.13;;;3.60;;
49840;SDS011;35738;49.890;5.930;2022-11-20T14:30:49;8.15;;;3.53;;
49840;SDS011;35738;49.890;5.930;2022-11-20T14:33:16;5.70;;;3.67;;
49840;SDS011;35738;49.890;5.930;2022-11-20T14:35:53;7.07;;;3.50;;
49840;SDS011;35738;49.890;5.930;2022-11-20T14:38:23;6.77;;;3.67;;
49840;SDS011;35738;49.890;5.930;2022-11-20T14:40:52;7.50;;;3.67;;
49840;SDS011;35738;49.890;5.930;2022-11-20T14:45:58;5.15;;;3.35;;
49840;SDS011;35738;49.890;5.930;2022-11-20T14:48:30;4.28;;;2.92;;
49840;SDS011;35738;49.890;5.930;2022-11-20T14:51:01;5.50;;;3.15;;
49840;SDS011;35738;49.890;5.930;2022-11-20T14:53:28;4.93;;;3.03;;
49840;SDS011;35738;49.890;5.930;2022-11-20T14:55:58;7.33;;;2.67;;
49840;SDS011;35738;49.890;5.930;2022-11-20T14:58:30;4.43;;;2.63;;
49840;SDS011;35738;49.890;5.930;2022-11-20T15:03:30;4.68;;;2.70;;
49840;SDS011;35738;49.890;5.930;2022-11-20T15:05:59;3.33;;;2.10;;
49840;SDS011;35738;49.890;5.930;2022-11-20T15:08:26;2.63;;;1.80;;
49840;SDS011;35738;49.890;5.930;2022-11-20T15:10:53;2.87;;;1.90;;
49840;SDS011;35738;49.890;5.930;2022-11-20T15:13:31;3.10;;;2.00;;
49840;SDS011;35738;49.890;5.930;2022-11-20T15:16:00;2.63;;;1.60;;
49840;SDS011;35738;49.890;5.930;2022-11-20T15:18:29;2.03;;;1.50;;
49840;SDS011;35738;49.890;5.930;2022-11-20T15:21:02;2.87;;;1.40;;
49840;SDS011;35738;49.890;5.930;2022-11-20T15:23:30;2.13;;;1.70;;
49840;SDS011;35738;49.890;5.930;2022-11-20T15:25:56;3.63;;;1.90;;
49840;SDS011;35738;49.890;5.930;2022-11-20T15:28:33;2.05;;;1.95;;
49840;SDS011;35738;49.890;5.930;2022-11-20T15:31:05;3.80;;;2.10;;
49840;SDS011;35738;49.890;5.930;2022-11-20T15:33:33;1.93;;;1.80;;
49840;SDS011;35738;49.890;5.930;2022-11-20T15:35:59;4.00;;;2.00;;
49840;SDS011;35738;49.890;5.930;2022-11-20T15:38:26;2.33;;;1.70;;
49840;SDS011;35738;49.890;5.930;2022-11-20T15:40:53;2.57;;;1.60;;
49840;SDS011;35738;49.890;5.930;2022-11-20T15:43:19;1.70;;;1.60;;
49840;SDS011;35738;49.890;5.930;2022-11-20T15:45:47;1.60;;;1.50;;
49840;SDS011;35738;49.890;5.930;2022-11-20T15:48:17;2.50;;;1.43;;
49840;SDS011;35738;49.890;5.930;2022-11-20T15:53:37;1.30;;;1.20;;
49840;SDS011;35738;49.890;5.930;2022-11-20T15:56:05;1.50;;;1.10;;
49840;SDS011;35738;49.890;5.930;2022-11-20T15:58:32;1.80;;;1.20;;
49840;SDS011;35738;49.890;5.930;2022-11-20T16:00:58;1.23;;;0.90;;
49840;SDS011;35738;49.890;5.930;2022-11-20T16:03:25;1.10;;;1.00;;
49840;SDS011;35738;49.890;5.930;2022-11-20T16:05:52;1.53;;;1.00;;
49840;SDS011;35738;49.890;5.930;2022-11-20T16:08:18;0.90;;;0.87;;
49840;SDS011;35738;49.890;5.930;2022-11-20T16:10:45;0.90;;;0.90;;
49840;SDS011;35738;49.890;5.930;2022-11-20T16:13:12;1.00;;;1.00;;
49840;SDS011;35738;49.890;5.930;2022-11-20T16:15:59;1.20;;;0.80;;
49840;SDS011;35738;49.890;5.930;2022-11-20T16:18:31;1.27;;;0.90;;
49840;SDS011;35738;49.890;5.930;2022-11-20T16:20:58;0.83;;;0.83;;
49840;SDS011;35738;49.890;5.930;2022-11-20T16:23:25;0.90;;;0.67;;
49840;SDS011;35738;49.890;5.930;2022-11-20T16:25:51;0.53;;;0.50;;
49840;SDS011;35738;49.890;5.930;2022-11-20T16:28:18;0.70;;;0.70;;
49840;SDS011;35738;49.890;5.930;2022-11-20T16:30:45;0.43;;;0.40;;
49840;SDS011;35738;49.890;5.930;2022-11-20T16:33:13;0.40;;;0.40;;
49840;SDS011;35738;49.890;5.930;2022-11-20T16:35:41;0.50;;;0.50;;